createdAt,value
2022-10-01T00:07:49.480Z,12.88
2022-10-01T00:18:10.815Z,12.85
2022-10-01T00:28:32.510Z,12.97
2022-10-01T00:38:54.282Z,12.98
2022-10-01T00:49:17.413Z,13.02
2022-10-01T00:59:39.150Z,12.91
2022-10-01T01:10:01.323Z,12.92
2022-10-01T01:20:25.656Z,13.06
2022-10-01T01:30:49.389Z,12.94
2022-10-01T01:41:11.586Z,12.62
2022-10-01T01:51:36.362Z,12.48
2022-10-01T02:01:59.096Z,12.36
2022-10-01T02:12:43.115Z,12.21
2022-10-01T02:23:13.409Z,11.87
2022-10-01T02:33:36.367Z,11.80
2022-10-01T02:44:01.341Z,11.83
2022-10-01T02:54:26.812Z,11.74
2022-10-01T03:04:48.572Z,11.70
2022-10-01T03:15:10.421Z,11.47
2022-10-01T03:25:32.009Z,11.30
2022-10-01T03:35:53.374Z,11.18
2022-10-01T03:46:14.857Z,11.16
2022-10-01T03:56:36.310Z,11.04
2022-10-01T04:06:57.672Z,11.13
2022-10-01T04:17:19.019Z,11.07
2022-10-01T04:27:41.065Z,11.06
2022-10-01T04:38:04.008Z,11.12
2022-10-01T04:48:25.426Z,11.20
2022-10-01T04:58:46.816Z,11.22
2022-10-01T05:09:08.200Z,11.27
2022-10-01T05:19:30.657Z,11.15
2022-10-01T05:29:52.485Z,11.26
2022-10-01T05:40:13.897Z,11.34
2022-10-01T05:50:39.217Z,11.25
2022-10-01T06:01:00.660Z,11.20
2022-10-01T06:11:24.261Z,11.32
2022-10-01T06:21:45.646Z,11.32
2022-10-01T06:32:08.003Z,11.38
2022-10-01T06:42:29.364Z,11.50
2022-10-01T06:52:51.132Z,11.54
2022-10-01T07:03:17.216Z,11.64
2022-10-01T07:13:38.558Z,11.69
2022-10-01T07:23:59.907Z,11.85
2022-10-01T07:34:22.235Z,11.92
2022-10-01T07:44:43.593Z,12.15
2022-10-01T07:55:06.180Z,12.30
2022-10-01T08:05:29.098Z,12.49
2022-10-01T08:15:53.404Z,12.48
2022-10-01T08:26:14.767Z,12.68
2022-10-01T08:36:37.804Z,12.93
2022-10-01T08:47:01.881Z,13.23
2022-10-01T08:57:37.024Z,13.45
2022-10-01T09:08:17.290Z,13.70
2022-10-01T09:18:54.046Z,14.08
2022-10-01T09:29:41.890Z,14.48
2022-10-01T09:40:12.815Z,14.47
2022-10-01T09:50:39.951Z,14.80
2022-10-01T10:01:01.496Z,15.05
2022-10-01T10:11:24.472Z,15.17
2022-10-01T10:22:09.106Z,15.38
2022-10-01T10:32:30.654Z,15.65
2022-10-01T10:42:53.360Z,15.95
2022-10-01T10:53:22.297Z,16.31
2022-10-01T11:03:46.426Z,16.27
2022-10-01T11:14:23.797Z,16.18
2022-10-01T11:24:48.407Z,16.60
2022-10-01T11:35:19.537Z,16.76
2022-10-01T11:45:43.447Z,17.42
2022-10-01T11:56:26.580Z,13.00
2022-10-01T12:06:54.260Z,12.87
2022-10-01T12:17:33.971Z,12.66
2022-10-01T12:28:04.636Z,12.95
2022-10-01T12:38:33.200Z,12.98
2022-10-01T12:49:02.977Z,13.16
2022-10-01T12:59:27.488Z,13.64
2022-10-01T13:10:02.519Z,14.17
2022-10-01T13:20:35.515Z,14.58
2022-10-01T13:31:01.406Z,14.92
2022-10-01T13:41:25.873Z,15.21
2022-10-01T13:51:47.378Z,15.55
2022-10-01T14:02:27.798Z,15.75
2022-10-01T14:13:08.533Z,15.80
2022-10-01T14:23:48.377Z,15.58
2022-10-01T14:34:29.803Z,15.30
2022-10-01T14:44:51.309Z,15.05
2022-10-01T14:55:13.713Z,15.11
2022-10-01T15:05:37.181Z,15.06
2022-10-01T15:15:59.664Z,15.03
2022-10-01T15:26:29.850Z,15.16
2022-10-01T15:36:52.267Z,15.38
2022-10-01T15:47:19.728Z,15.42
2022-10-01T15:57:42.190Z,14.98
2022-10-01T16:08:03.924Z,14.43
2022-10-01T16:18:25.454Z,14.22
2022-10-01T16:28:47.140Z,14.11
2022-10-01T16:39:08.830Z,13.99
2022-10-01T16:49:30.298Z,13.93
2022-10-01T16:59:51.862Z,13.87
2022-10-01T17:10:14.125Z,13.78
2022-10-01T17:20:37.577Z,13.67
2022-10-01T17:30:59.036Z,13.61
2022-10-01T17:41:20.568Z,13.47
2022-10-01T17:51:42.032Z,13.61
2022-10-01T18:02:18.625Z,13.31
2022-10-01T18:12:45.350Z,13.40
2022-10-01T18:23:07.314Z,13.19
2022-10-01T18:33:29.272Z,13.28
2022-10-01T18:43:50.815Z,13.36
2022-10-01T18:54:24.936Z,13.30
2022-10-01T19:04:49.519Z,13.10
2022-10-01T19:15:40.219Z,13.19
2022-10-01T19:26:22.538Z,13.04
2022-10-01T19:37:06.950Z,12.99
2022-10-01T19:47:34.533Z,12.90
2022-10-01T19:57:56.109Z,12.85
2022-10-01T20:08:40.578Z,12.89
2022-10-01T20:19:23.789Z,12.85
2022-10-01T20:30:04.852Z,12.84
2022-10-01T20:40:49.468Z,12.82
2022-10-01T20:51:40.167Z,12.85
2022-10-01T21:02:13.383Z,12.89
2022-10-01T21:12:42.455Z,12.78
2022-10-01T21:23:16.441Z,12.73
2022-10-01T21:33:54.062Z,12.44
2022-10-01T21:44:34.109Z,12.29
2022-10-01T21:55:14.354Z,12.14
2022-10-01T22:05:45.039Z,12.00
2022-10-01T22:16:10.139Z,12.18
2022-10-01T22:26:34.209Z,12.02
2022-10-01T22:37:01.877Z,12.14
2022-10-01T22:47:55.250Z,12.23
2022-10-01T22:58:16.695Z,12.10
2022-10-01T23:08:53.004Z,12.07
2022-10-01T23:20:01.064Z,12.20
2022-10-01T23:30:22.835Z,12.11
2022-10-01T23:40:45.494Z,12.32
2022-10-01T23:51:17.538Z,12.15
